Time;durP1;ratioP1;P1;durP2;ratioP2;P2;SDS_P1;SDS_P2;PMS_P1;PMS_P2;Temp;Humidity;BMP_temperature;BMP_pressure;BME280_temperature;BME280_humidity;BME280_pressure;Samples;Min_cycle;Max_cycle;Signal;HPM_P1;HPM_P2
2023/03/24 00:02:18;;;;;;;5.20;2.35;;;;;;;9.99;100.00;99834.56;10336222;28;20125;-77
2023/03/24 00:07:22;;;;;;;5.53;2.88;;;;;;;10.01;100.00;99816.34;10301168;28;20034;-76
2023/03/24 00:12:24;;;;;;;5.95;3.53;;;;;;;9.95;100.00;99814.38;10285887;28;20490;-77
2023/03/24 00:17:28;;;;;;;5.20;2.75;;;;;;;10.01;100.00;99807.59;10300208;28;20482;-76
2023/03/24 00:22:28;;;;;;;8.10;2.72;;;;;;;9.99;100.00;99808.44;10296212;28;20034;-76
2023/03/24 00:27:30;;;;;;;7.57;2.58;;;;;;;9.95;100.00;99788.25;10359858;28;20129;-76
2023/03/24 00:32:30;;;;;;;6.10;3.10;;;;;;;9.93;100.00;99782.09;10318488;28;20117;-76
2023/03/24 00:37:31;;;;;;;5.57;2.70;;;;;;;9.93;100.00;99778.59;10345116;28;20478;-76
2023/03/24 00:42:35;;;;;;;5.10;3.63;;;;;;;9.99;100.00;99778.81;10341715;28;20037;-77
2023/03/24 00:47:36;;;;;;;6.63;2.85;;;;;;;10.06;100.00;99769.41;10343687;28;20041;-77
2023/03/24 00:52:42;;;;;;;4.30;2.08;;;;;;;10.07;100.00;99748.56;10344764;28;20037;-76
2023/03/24 00:57:49;;;;;;;5.32;2.78;;;;;;;10.14;100.00;99749.63;10365310;28;20038;-77
2023/03/24 01:02:52;;;;;;;3.22;2.00;;;;;;;10.14;100.00;99736.56;10293308;28;20070;-76
2023/03/24 01:07:55;;;;;;;3.58;1.90;;;;;;;10.12;100.00;99728.69;10307015;28;20049;-76
2023/03/24 01:12:57;;;;;;;3.85;2.17;;;;;;;10.22;100.00;99706.31;10299463;28;20108;-76
2023/03/24 01:18:00;;;;;;;4.72;2.40;;;;;;;10.20;100.00;99722.81;10308589;28;20110;-76
2023/03/24 01:23:03;;;;;;;5.45;2.47;;;;;;;10.29;100.00;99708.25;10339897;28;20375;-76
2023/03/24 01:28:04;;;;;;;4.28;2.65;;;;;;;10.27;100.00;99702.09;10305787;28;20070;-77
2023/03/24 01:33:05;;;;;;;6.97;3.50;;;;;;;10.25;100.00;99703.78;10310784;28;20038;-77
2023/03/24 01:38:06;;;;;;;4.75;2.63;;;;;;;10.20;100.00;99689.69;10343131;28;20049;-77
2023/03/24 01:43:16;;;;;;;8.03;3.23;;;;;;;10.24;100.00;99682.84;10342440;28;20405;-76
2023/03/24 01:48:26;;;;;;;4.75;2.80;;;;;;;10.29;100.00;99666.44;10319238;28;20038;-77
2023/03/24 01:53:26;;;;;;;5.93;3.35;;;;;;;10.33;100.00;99646.50;10331862;28;20042;-76
2023/03/24 01:58:28;;;;;;;5.80;2.90;;;;;;;10.33;100.00;99643.88;10341222;28;20393;-77
2023/03/24 02:03:32;;;;;;;7.07;3.10;;;;;;;10.37;100.00;99642.22;10316291;28;20056;-77
2023/03/24 02:08:38;;;;;;;5.05;2.72;;;;;;;10.50;100.00;99646.13;10332719;28;20436;-77
2023/03/24 02:13:38;;;;;;;10.02;4.68;;;;;;;10.63;100.00;99629.03;10320621;28;20041;-77
2023/03/24 02:18:48;;;;;;;6.28;2.30;;;;;;;10.65;100.00;99619.47;10303975;28;20508;-77
2023/03/24 02:24:00;;;;;;;8.95;3.15;;;;;;;10.76;100.00;99615.44;10338404;28;20041;-77
2023/03/24 02:29:19;;;;;;;;;;;;;;;10.98;100.00;99616.00;10320987;28;20430;-77
2023/03/24 02:34:41;;;;;;;5.32;3.42;;;;;;;11.08;100.00;99597.06;10320796;28;19972;-77
2023/03/24 02:40:12;;;;;;;4.17;2.40;;;;;;;11.14;100.00;99575.38;10304380;28;20041;-76
2023/03/24 02:45:21;;;;;;;6.35;3.15;;;;;;;11.26;100.00;99587.88;10346904;28;20103;-76
2023/03/24 02:50:30;;;;;;;4.32;2.30;;;;;;;11.31;100.00;99594.13;10360018;28;20116;-77
2023/03/24 02:55:33;;;;;;;3.78;2.28;;;;;;;11.31;100.00;99588.88;10289360;28;20093;-76
2023/03/24 03:00:40;;;;;;;4.65;2.13;;;;;;;11.41;100.00;99577.78;10294003;28;20402;-76
2023/03/24 03:05:50;;;;;;;5.32;2.40;;;;;;;11.42;100.00;99589.16;10289143;28;20177;-77
2023/03/24 03:10:50;;;;;;;3.88;2.63;;;;;;;11.42;100.00;99603.13;10278970;28;20426;-77
2023/03/24 03:15:53;;;;;;;4.85;2.17;;;;;;;11.41;100.00;99611.81;10262974;28;20047;-77
2023/03/24 03:20:57;;;;;;;4.15;2.33;;;;;;;11.42;100.00;99604.88;10320680;28;20066;-78
2023/03/24 03:26:03;;;;;;;7.55;2.75;;;;;;;11.29;100.00;99629.88;10278456;28;20074;-77
2023/03/24 03:31:13;;;;;;;4.50;2.78;;;;;;;11.05;100.00;99638.88;10305225;28;20043;-77
2023/03/24 03:36:21;;;;;;;4.35;2.63;;;;;;;10.78;100.00;99641.66;10268997;28;20038;-77
2023/03/24 03:41:22;;;;;;;4.72;2.92;;;;;;;10.55;100.00;99662.84;10294085;28;20049;-76
2023/03/24 03:46:23;;;;;;;5.30;2.65;;;;;;;10.43;100.00;99681.66;10300715;28;20037;-77
2023/03/24 03:51:23;;;;;;;5.72;2.75;;;;;;;10.45;100.00;99694.81;10290020;28;20039;-78
2023/03/24 03:56:26;;;;;;;5.15;2.65;;;;;;;10.48;100.00;99680.06;10282769;28;20187;-78
2023/03/24 04:01:28;;;;;;;4.82;2.88;;;;;;;10.51;100.00;99681.91;10298242;28;20125;-77
2023/03/24 04:06:49;;;;;;;6.10;3.07;;;;;;;10.49;100.00;99708.00;10318481;28;20125;-77
2023/03/24 04:12:10;;;;;;;5.63;1.45;;;;;;;10.28;100.00;99722.19;10279637;28;20278;-77
2023/03/24 04:17:32;;;;;;;2.40;1.17;;;;;;;10.18;100.00;99732.31;10305894;28;20039;-77
2023/03/24 04:22:42;;;;;;;2.47;0.70;;;;;;;9.97;100.00;99738.66;10306115;28;20104;-77
2023/03/24 04:27:59;;;;;;;3.30;1.25;;;;;;;9.80;100.00;99772.06;10303434;28;20130;-77
2023/03/24 04:33:09;;;;;;;3.88;1.10;;;;;;;9.63;100.00;99780.22;10285012;28;20125;-77
2023/03/24 04:38:16;;;;;;;2.03;1.05;;;;;;;9.35;100.00;99784.50;10282479;28;20760;-77
2023/03/24 04:43:18;;;;;;;3.25;1.92;;;;;;;9.14;100.00;99799.41;10268415;28;20034;-77
2023/03/24 04:48:19;;;;;;;5.18;1.70;;;;;;;9.08;100.00;99816.59;10252962;28;20088;-77
2023/03/24 04:53:19;;;;;;;3.88;0.85;;;;;;;9.09;100.00;99834.03;10303962;28;20560;-77
2023/03/24 04:58:20;;;;;;;2.28;1.15;;;;;;;8.99;100.00;99846.72;10312449;28;20521;-77
2023/03/24 05:03:21;;;;;;;15.57;2.73;;;;;;;8.86;100.00;99848.84;10328826;28;20045;-78
2023/03/24 05:08:22;;;;;;;4.90;1.40;;;;;;;8.74;100.00;99857.09;10344582;28;20048;-78
2023/03/24 05:13:22;;;;;;;8.43;1.67;;;;;;;8.76;100.00;99868.47;10340234;28;20045;-78
2023/03/24 05:18:23;;;;;;;3.75;1.40;;;;;;;8.78;100.00;99878.97;10308780;28;20084;-77
2023/03/24 05:23:23;;;;;;;4.55;2.65;;;;;;;8.79;100.00;99878.16;10306208;28;20486;-77
2023/03/24 05:28:24;;;;;;;10.43;2.78;;;;;;;8.77;100.00;99883.28;10320574;28;20117;-77
2023/03/24 05:33:25;;;;;;;8.52;1.60;;;;;;;8.78;100.00;99892.03;10310989;28;20573;-77
2023/03/24 05:38:25;;;;;;;9.95;3.00;;;;;;;8.80;100.00;99899.06;10319391;28;20046;-77
2023/03/24 05:43:26;;;;;;;8.13;3.10;;;;;;;8.71;100.00;99914.34;10345209;28;20532;-77
2023/03/24 05:48:27;;;;;;;10.32;2.67;;;;;;;8.57;100.00;99919.03;10356378;28;20041;-76
2023/03/24 05:53:27;;;;;;;8.82;3.35;;;;;;;8.38;100.00;99920.84;10323186;28;20405;-78
2023/03/24 05:58:28;;;;;;;7.57;2.40;;;;;;;8.22;100.00;99927.13;10338773;28;20138;-79
2023/03/24 06:03:32;;;;;;;13.88;5.68;;;;;;;8.14;100.00;99940.69;10299734;28;20132;-77
2023/03/24 06:08:34;;;;;;;13.63;4.40;;;;;;;8.08;100.00;99938.69;10329573;28;20508;-78
2023/03/24 06:13:35;;;;;;;6.65;2.08;;;;;;;8.10;100.00;99955.28;10318369;28;20040;-78
2023/03/24 06:18:35;;;;;;;6.00;2.60;;;;;;;8.39;100.00;99937.38;10324103;28;20134;-78
2023/03/24 06:23:37;;;;;;;5.85;2.40;;;;;;;9.69;100.00;99958.09;10333270;28;20058;-76
2023/03/24 06:28:38;;;;;;;22.63;8.23;;;;;;;10.84;100.00;99950.69;10348379;28;20049;-76
2023/03/24 06:33:41;;;;;;;11.55;2.97;;;;;;;11.72;100.00;99955.03;10336794;28;20053;-77
2023/03/24 06:38:41;;;;;;;9.52;2.45;;;;;;;12.38;100.00;99948.09;10327717;28;20037;-77
2023/03/24 06:43:42;;;;;;;6.80;1.70;;;;;;;13.11;100.00;99941.94;10328360;28;20048;-77
2023/03/24 06:48:42;;;;;;;5.32;1.55;;;;;;;13.45;100.00;99932.19;10332487;28;20057;-77
2023/03/24 06:53:44;;;;;;;7.68;3.80;;;;;;;13.70;100.00;99939.72;10333255;28;20038;-77
2023/03/24 06:58:45;;;;;;;6.47;1.85;;;;;;;14.11;100.00;99934.34;10326775;28;20050;-77
2023/03/24 07:03:47;;;;;;;18.33;5.15;;;;;;;14.21;100.00;99938.94;10286291;28;20053;-77
2023/03/24 07:08:48;;;;;;;10.90;3.22;;;;;;;14.05;100.00;99935.13;10340067;28;20034;-79
2023/03/24 07:13:49;;;;;;;12.70;4.20;;;;;;;13.55;100.00;99948.16;10357835;28;20121;-76
2023/03/24 07:18:49;;;;;;;7.35;2.45;;;;;;;13.28;100.00;99944.06;10358114;28;20033;-74
2023/03/24 07:23:50;;;;;;;9.63;2.78;;;;;;;13.81;100.00;99961.84;10314559;28;20489;-75
2023/03/24 07:28:50;;;;;;;11.40;3.70;;;;;;;14.55;100.00;99975.47;10307254;28;20125;-76
2023/03/24 07:33:51;;;;;;;14.07;4.22;;;;;;;14.91;100.00;99987.50;10327368;28;20153;-75
2023/03/24 07:38:51;;;;;;;11.27;2.63;;;;;;;15.46;100.00;99991.81;10340782;28;20132;-76
2023/03/24 07:43:52;;;;;;;6.30;2.65;;;;;;;15.05;100.00;99981.56;10334965;28;20137;-76
2023/03/24 07:48:52;;;;;;;32.45;5.25;;;;;;;14.96;100.00;99987.59;10341203;28;20606;-77
2023/03/24 07:53:53;;;;;;;16.98;3.10;;;;;;;13.90;100.00;99983.06;10340003;28;20128;-76
2023/03/24 07:58:53;;;;;;;8.95;2.78;;;;;;;14.58;100.00;99985.19;10324931;28;20058;-75
2023/03/24 08:03:54;;;;;;;11.07;3.40;;;;;;;14.84;100.00;99998.81;10308182;28;20482;-76
2023/03/24 08:08:55;;;;;;;10.20;3.67;;;;;;;14.87;100.00;100022.56;10337673;28;20053;-76
2023/03/24 08:13:57;;;;;;;15.30;4.07;;;;;;;15.19;100.00;100010.78;10337197;28;20402;-75
2023/03/24 08:18:58;;;;;;;13.85;3.17;;;;;;;14.46;100.00;100012.16;10323959;28;20068;-76
2023/03/24 08:23:58;;;;;;;10.48;3.55;;;;;;;14.49;100.00;100007.84;10363955;28;20069;-76
2023/03/24 08:28:59;;;;;;;10.02;3.20;;;;;;;13.40;100.00;100017.91;10342710;28;20056;-77
2023/03/24 08:33:59;;;;;;;13.65;3.53;;;;;;;12.91;100.00;100023.78;10331466;28;20140;-77
2023/03/24 08:39:00;;;;;;;7.18;3.58;;;;;;;12.82;100.00;100028.81;10334815;28;20116;-76
2023/03/24 08:44:04;;;;;;;10.45;3.38;;;;;;;12.89;100.00;100029.84;10323654;28;20038;-76
2023/03/24 08:49:05;;;;;;;6.30;3.10;;;;;;;12.83;100.00;100043.72;10323506;28;20049;-77
2023/03/24 08:54:06;;;;;;;9.98;3.70;;;;;;;13.28;100.00;100044.81;10275842;28;20471;-77
2023/03/24 08:59:07;;;;;;;10.77;3.70;;;;;;;13.99;100.00;100058.63;10305545;28;20121;-76
2023/03/24 09:04:07;;;;;;;8.35;3.20;;;;;;;13.86;100.00;100059.22;10311965;28;20038;-75
2023/03/24 09:09:07;;;;;;;13.70;2.10;;;;;;;13.65;100.00;100071.06;10328336;28;20069;-76
2023/03/24 09:14:08;;;;;;;11.13;2.75;;;;;;;13.04;100.00;100055.59;10306537;28;20048;-76
2023/03/24 09:19:09;;;;;;;7.30;2.55;;;;;;;13.59;100.00;100066.56;10307514;28;20046;-77
2023/03/24 09:24:09;;;;;;;7.50;2.13;;;;;;;14.18;100.00;100065.19;10304873;28;20122;-75
2023/03/24 09:29:10;;;;;;;8.48;1.80;;;;;;;14.43;100.00;100070.03;10303055;28;20133;-76
2023/03/24 09:34:11;;;;;;;8.05;2.00;;;;;;;13.69;100.00;100070.28;10329069;28;20054;-74
2023/03/24 09:39:11;;;;;;;9.73;2.60;;;;;;;14.33;100.00;100058.44;10356471;28;20136;-75
2023/03/24 09:44:22;;;;;;;10.70;3.88;;;;;;;15.00;100.00;100070.19;10362599;28;20037;-76
2023/03/24 09:49:26;;;;;;;9.52;2.42;;;;;;;16.94;95.15;100070.06;10314875;28;20038;-75
2023/03/24 09:54:32;;;;;;;5.72;2.22;;;;;;;16.03;92.63;100073.47;10319029;28;20054;-75
2023/03/24 09:59:37;;;;;;;8.35;2.53;;;;;;;15.57;95.12;100079.00;10309465;28;20046;-75
2023/03/24 10:04:37;;;;;;;10.20;2.08;;;;;;;14.62;94.55;100087.94;10324270;28;20139;-75
2023/03/24 10:09:38;;;;;;;5.97;1.85;;;;;;;13.75;100.00;100098.47;10314455;28;20181;-74
2023/03/24 10:15:10;;;;;;;12.32;2.58;;;;;;;13.36;100.00;100101.06;10312393;28;20045;-75
2023/03/24 10:20:34;;;;;;;11.07;4.25;;;;;;;13.83;100.00;100098.63;10276552;28;20053;-74
2023/03/24 10:25:47;;;;;;;8.35;2.58;;;;;;;14.16;100.00;100094.94;10303504;28;20045;-75
2023/03/24 10:30:49;;;;;;;11.23;4.05;;;;;;;13.22;100.00;100103.34;10342186;28;20033;-75
2023/03/24 10:35:59;;;;;;;6.63;2.08;;;;;;;13.02;100.00;100105.47;10310436;28;20085;-74
2023/03/24 10:40:59;;;;;;;6.97;2.00;;;;;;;14.65;100.00;100100.28;10339484;28;20436;-75
2023/03/24 10:46:00;;;;;;;9.02;4.45;;;;;;;15.03;96.56;100096.59;10302894;28;20045;-75
2023/03/24 10:51:01;;;;;;;8.33;3.20;;;;;;;14.06;98.72;100104.41;10280903;28;20045;-75
2023/03/24 10:56:02;;;;;;;9.35;2.58;;;;;;;13.62;100.00;100099.91;10314471;28;20087;-75
2023/03/24 11:01:02;;;;;;;7.95;3.05;;;;;;;14.56;98.92;100082.56;10293880;28;20042;-76
2023/03/24 11:06:03;;;;;;;12.70;2.40;;;;;;;14.81;99.61;100081.31;10304563;28;20055;-75
2023/03/24 11:11:19;;;;;;;5.72;1.90;;;;;;;14.83;97.88;100091.84;10312682;28;20498;-76
2023/03/24 11:16:20;;;;;;;10.68;2.17;;;;;;;14.60;95.50;100091.41;10356836;28;20133;-75
2023/03/24 11:21:21;;;;;;;6.40;3.13;;;;;;;16.21;91.52;100090.41;10297597;28;20069;-76
2023/03/24 11:26:35;;;;;;;5.93;3.60;;;;;;;16.68;89.26;100092.69;10306246;28;20446;-75
2023/03/24 11:31:38;;;;;;;4.93;1.95;;;;;;;16.25;85.71;100094.88;10317246;28;20070;-77
2023/03/24 11:36:42;;;;;;;7.72;2.63;;;;;;;15.30;87.85;100096.19;10317026;28;20782;-77
2023/03/24 11:42:08;;;;;;;8.38;2.20;;;;;;;15.08;87.68;100098.47;10338701;28;20046;-77
2023/03/24 11:47:31;;;;;;;7.07;2.58;;;;;;;15.40;88.62;100103.38;10335065;28;20516;-77
2023/03/24 11:52:53;;;;;;;12.00;2.60;;;;;;;15.04;86.76;100104.53;10336989;28;20111;-75
2023/03/24 11:58:35;;;;;;;8.70;2.72;;;;;;;15.03;87.08;100101.84;10317658;28;20049;-78
2023/03/24 12:04:10;;;;;;;9.20;2.33;;;;;;;14.69;92.16;100086.31;10329514;28;20042;-77
2023/03/24 12:09:30;;;;;;;10.73;3.33;;;;;;;14.79;86.23;100085.66;10344628;28;20037;-78
2023/03/24 12:14:46;;;;;;;11.23;2.47;;;;;;;14.01;90.38;100083.22;10306012;28;20060;-78
2023/03/24 12:20:14;;;;;;;7.65;2.33;;;;;;;13.44;95.87;100087.25;10336660;28;20065;-79
2023/03/24 12:25:38;;;;;;;6.03;2.47;;;;;;;13.11;100.00;100086.44;10301221;28;20043;-78
2023/03/24 12:30:44;;;;;;;9.15;3.33;;;;;;;12.81;100.00;100082.16;10323130;28;20477;-79
2023/03/24 12:36:02;;;;;;;7.55;2.30;;;;;;;12.96;100.00;100101.78;10329310;28;20042;-80
2023/03/24 12:41:12;;;;;;;11.13;2.67;;;;;;;14.65;100.00;100084.50;10339374;28;20077;-79
2023/03/24 12:46:44;;;;;;;10.65;3.50;;;;;;;15.99;90.03;100075.22;10338381;28;20512;-78
2023/03/24 12:52:14;;;;;;;6.63;2.03;;;;;;;19.24;74.55;100056.03;10264358;28;20046;-79
2023/03/24 12:57:18;;;;;;;6.35;2.33;;;;;;;16.47;75.31;100053.75;10315760;28;20394;-77
2023/03/24 13:02:26;;;;;;;8.48;3.05;;;;;;;15.26;83.83;100060.09;10289981;28;20042;-78
2023/03/24 13:07:27;;;;;;;6.38;1.52;;;;;;;15.54;86.00;100065.78;10328117;28;20125;-79
2023/03/24 13:12:37;;;;;;;11.65;2.85;;;;;;;15.89;79.19;100075.97;10329243;28;20042;-78
2023/03/24 13:17:46;;;;;;;4.35;1.58;;;;;;;14.75;82.83;100098.72;10346249;28;20508;-79
2023/03/24 13:22:47;;;;;;;7.97;1.42;;;;;;;12.69;100.00;100127.38;10316230;28;20042;-78
2023/03/24 13:27:48;;;;;;;6.40;2.13;;;;;;;11.27;100.00;100119.66;10329071;28;20056;-82
2023/03/24 13:32:51;;;;;;;4.07;1.58;;;;;;;10.84;100.00;100118.22;10301168;28;20580;-77
2023/03/24 13:38:16;;;;;;;4.68;1.38;;;;;;;11.49;100.00;100108.97;10304937;28;20486;-76
2023/03/24 13:43:24;;;;;;;3.83;1.13;;;;;;;11.78;100.00;100102.03;10324668;28;20416;-76
2023/03/24 13:48:27;;;;;;;2.03;0.98;;;;;;;11.33;100.00;100113.72;10323052;28;20038;-75
2023/03/24 13:53:35;;;;;;;2.50;0.93;;;;;;;12.78;100.00;100116.22;10342552;28;20133;-75
2023/03/24 13:58:48;;;;;;;12.52;2.28;;;;;;;16.03;100.00;100080.53;10354788;28;20066;-74
2023/03/24 14:04:18;;;;;;;3.97;1.20;;;;;;;16.18;100.00;100075.44;10272053;28;20045;-75
2023/03/24 14:09:20;;;;;;;6.20;1.58;;;;;;;14.19;100.00;100069.59;10343027;28;20042;-76
2023/03/24 14:14:22;;;;;;;4.15;1.42;;;;;;;13.13;100.00;100087.34;10337140;28;20069;-77
2023/03/24 14:19:29;;;;;;;4.55;1.50;;;;;;;12.40;100.00;100087.19;10345412;28;20037;-77
2023/03/24 14:24:31;;;;;;;6.63;2.88;;;;;;;11.78;100.00;100103.75;10340693;28;20045;-77
2023/03/24 14:29:37;;;;;;;9.82;3.83;;;;;;;11.29;100.00;100083.00;10303941;28;20477;-76
2023/03/24 14:34:38;;;;;;;39.67;24.70;;;;;;;10.73;100.00;100073.34;10291364;28;20053;-74
2023/03/24 14:39:40;;;;;;;7.68;2.35;;;;;;;10.37;100.00;100086.88;10315949;28;20038;-76
2023/03/24 14:44:48;;;;;;;6.95;2.67;;;;;;;10.18;100.00;100119.31;10309646;28;20087;-76
2023/03/24 14:49:51;;;;;;;6.05;2.60;;;;;;;10.16;100.00;100123.59;10337584;28;20068;-76
2023/03/24 14:55:02;;;;;;;6.25;2.40;;;;;;;10.40;100.00;100128.88;10327512;28;20042;-78
2023/03/24 15:00:15;;;;;;;4.60;2.10;;;;;;;11.25;100.00;100130.91;10349888;28;20050;-78
2023/03/24 15:05:30;;;;;;;9.05;3.63;;;;;;;12.34;100.00;100117.66;10344742;28;20612;-78
2023/03/24 15:10:39;;;;;;;2.15;0.60;;;;;;;13.04;100.00;100100.25;10309743;28;20437;-76
2023/03/24 15:15:48;;;;;;;2.15;0.45;;;;;;;13.43;100.00;100086.34;10333160;28;20068;-76
2023/03/24 15:20:49;;;;;;;3.67;0.77;;;;;;;11.77;100.00;100076.66;10315535;28;20202;-76
2023/03/24 15:25:50;;;;;;;1.17;0.50;;;;;;;10.89;100.00;100072.13;10310230;28;20046;-77
2023/03/24 15:30:50;;;;;;;3.80;0.70;;;;;;;10.66;100.00;100064.41;10331763;28;20117;-77
2023/03/24 15:35:55;;;;;;;2.20;0.75;;;;;;;10.67;100.00;100054.81;10319073;28;20133;-76
2023/03/24 15:41:01;;;;;;;2.58;0.88;;;;;;;10.92;100.00;100063.47;10341635;28;20050;-77
2023/03/24 15:46:04;;;;;;;5.32;1.10;;;;;;;11.10;100.00;100063.22;10285169;28;20045;-76
2023/03/24 15:51:10;;;;;;;7.22;2.70;;;;;;;11.35;100.00;100053.53;10305567;28;20524;-77
2023/03/24 15:56:19;;;;;;;5.53;2.53;;;;;;;12.21;100.00;100044.72;10351774;28;20452;-77
2023/03/24 16:01:26;;;;;;;12.45;1.80;;;;;;;12.50;100.00;100043.75;10329859;28;20409;-77
2023/03/24 16:06:37;;;;;;;5.55;1.10;;;;;;;12.30;100.00;100034.47;10312750;28;20125;-76
2023/03/24 16:11:37;;;;;;;2.55;0.90;;;;;;;11.84;100.00;100026.19;10288057;28;20096;-76
2023/03/24 16:16:38;;;;;;;5.47;1.20;;;;;;;11.70;100.00;100033.63;10320752;28;20436;-75
2023/03/24 16:21:38;;;;;;;15.30;5.05;;;;;;;11.46;100.00;100032.03;10352135;28;20437;-76
2023/03/24 16:26:39;;;;;;;7.47;3.42;;;;;;;11.39;100.00;100034.44;10341668;28;20100;-75
2023/03/24 16:31:40;;;;;;;5.97;2.00;;;;;;;11.24;100.00;100045.31;10361091;28;20091;-76
2023/03/24 16:36:40;;;;;;;3.22;1.63;;;;;;;11.11;100.00;100037.06;10329395;28;20486;-76
2023/03/24 16:41:41;;;;;;;3.22;1.02;;;;;;;10.98;100.00;100045.34;10300929;28;20046;-76
2023/03/24 16:46:42;;;;;;;3.45;1.13;;;;;;;10.90;100.00;100042.50;10345143;28;20053;-75
2023/03/24 16:51:44;;;;;;;6.40;1.30;;;;;;;10.89;100.00;100037.19;10325417;28;20446;-75
2023/03/24 16:56:44;;;;;;;3.33;1.10;;;;;;;10.72;100.00;100046.28;10300683;28;20052;-75
2023/03/24 17:01:45;;;;;;;3.03;1.35;;;;;;;10.57;100.00;100046.63;10332506;28;20045;-76
2023/03/24 17:06:52;;;;;;;3.28;1.45;;;;;;;10.34;100.00;100058.00;10307098;28;20053;-76
2023/03/24 17:11:54;;;;;;;3.30;1.10;;;;;;;10.17;100.00;100057.41;10315879;28;20502;-75
2023/03/24 17:16:54;;;;;;;;;;;;;;;10.19;100.00;100058.34;10304707;28;20038;-75
2023/03/24 17:21:58;;;;;;;4.85;1.55;;;;;;;10.22;100.00;100055.84;10319781;28;19921;-75
2023/03/24 17:27:00;;;;;;;5.97;2.03;;;;;;;10.18;100.00;100051.34;10286984;28;20402;-75
2023/03/24 17:32:00;;;;;;;4.20;1.30;;;;;;;9.93;100.00;100056.53;10312798;28;20081;-76
2023/03/24 17:37:01;;;;;;;3.33;1.33;;;;;;;9.83;100.00;100057.03;10315783;28;20511;-77
2023/03/24 17:42:02;;;;;;;5.65;1.65;;;;;;;9.76;100.00;100068.06;10315268;28;20090;-76
2023/03/24 17:47:03;;;;;;;6.07;2.13;;;;;;;9.67;100.00;100064.28;10314502;28;20042;-78
2023/03/24 17:52:04;;;;;;;6.57;1.80;;;;;;;9.64;100.00;100058.06;10315820;28;20136;-78
2023/03/24 17:57:04;;;;;;;4.13;1.27;;;;;;;9.61;100.00;100056.22;10299123;28;20046;-77
2023/03/24 18:02:05;;;;;;;4.32;1.45;;;;;;;9.67;100.00;100052.97;10313049;28;20125;-76
2023/03/24 18:07:05;;;;;;;10.95;3.70;;;;;;;9.68;100.00;100055.59;10310011;28;20168;-78
2023/03/24 18:12:06;;;;;;;5.20;2.58;;;;;;;9.78;100.00;100055.97;10308609;28;20043;-78
2023/03/24 18:17:08;;;;;;;7.85;4.30;;;;;;;9.88;100.00;100060.69;10313632;28;20053;-77
2023/03/24 18:22:08;;;;;;;4.55;1.48;;;;;;;10.00;100.00;100062.91;10312652;28;20073;-77
2023/03/24 18:27:09;;;;;;;9.07;2.35;;;;;;;10.01;100.00;100054.22;10295898;28;20057;-77
2023/03/24 18:32:09;;;;;;;12.45;3.47;;;;;;;10.01;100.00;100054.22;10314268;28;20129;-75
2023/03/24 18:37:10;;;;;;;5.10;1.55;;;;;;;10.01;100.00;100059.44;10288187;28;20043;-76
2023/03/24 18:42:11;;;;;;;7.25;2.35;;;;;;;9.72;100.00;100088.00;10304515;28;20042;-76
2023/03/24 18:47:12;;;;;;;4.40;2.13;;;;;;;9.49;100.00;100089.69;10291908;28;20483;-76
2023/03/24 18:52:16;;;;;;;2.47;1.20;;;;;;;9.05;100.00;100095.78;10317275;28;20065;-75
2023/03/24 18:57:17;;;;;;;1.88;1.33;;;;;;;8.65;100.00;100083.66;10289008;28;20104;-75
2023/03/24 19:02:17;;;;;;;5.93;1.40;;;;;;;8.38;100.00;100108.59;10305359;28;20597;-75
2023/03/24 19:07:23;;;;;;;3.67;1.50;;;;;;;8.34;100.00;100093.66;10294271;28;20085;-75
2023/03/24 19:12:23;;;;;;;1.77;0.80;;;;;;;8.37;100.00;100099.00;10294822;28;20049;-76
2023/03/24 19:17:26;;;;;;;2.90;1.15;;;;;;;8.31;100.00;100098.72;10297339;28;20031;-76
2023/03/24 19:22:26;;;;;;;;;;;;;;;8.29;100.00;100095.16;10281228;28;20038;-75
2023/03/24 19:27:27;;;;;;;3.10;0.80;;;;;;;8.15;100.00;100098.84;10311328;28;20293;-76
2023/03/24 19:32:27;;;;;;;3.17;0.90;;;;;;;8.03;100.00;100109.59;10305932;28;20322;-76
2023/03/24 19:37:30;;;;;;;2.65;1.17;;;;;;;7.82;100.00;100099.97;10303163;28;20172;-76
2023/03/24 19:42:31;;;;;;;3.17;1.52;;;;;;;7.80;100.00;100101.63;10296872;28;20042;-76
2023/03/24 19:47:32;;;;;;;3.30;0.65;;;;;;;7.78;100.00;100096.34;10318888;28;20129;-75
2023/03/24 19:52:33;;;;;;;4.47;0.70;;;;;;;7.71;100.00;100095.97;10309979;28;20125;-77
2023/03/24 19:57:34;;;;;;;1.23;0.55;;;;;;;7.67;100.00;100094.06;10311518;28;20046;-76
2023/03/24 20:02:36;;;;;;;4.35;0.95;;;;;;;7.60;100.00;100093.75;10293043;28;20043;-76
2023/03/24 20:07:36;;;;;;;2.33;0.60;;;;;;;7.47;100.00;100084.50;10284164;28;20400;-76
2023/03/24 20:12:37;;;;;;;1.95;0.90;;;;;;;7.47;100.00;100094.91;10297595;28;20265;-76
2023/03/24 20:17:38;;;;;;;1.95;0.63;;;;;;;7.45;100.00;100093.94;10336372;28;20137;-76
2023/03/24 20:22:43;;;;;;;4.80;1.53;;;;;;;7.43;100.00;100082.56;10301928;28;20042;-77
2023/03/24 20:27:44;;;;;;;1.67;0.68;;;;;;;7.40;100.00;100084.09;10317352;28;20138;-76
2023/03/24 20:32:44;;;;;;;3.17;1.52;;;;;;;7.23;100.00;100091.13;10305650;28;20046;-76
2023/03/24 20:37:45;;;;;;;7.80;4.32;;;;;;;7.08;100.00;100088.66;10318076;28;20043;-77
2023/03/24 20:42:46;;;;;;;2.95;1.70;;;;;;;6.99;100.00;100095.19;10291967;28;20078;-77
2023/03/24 20:47:46;;;;;;;3.70;0.65;;;;;;;7.08;100.00;100096.44;10323610;28;20126;-76
2023/03/24 20:52:47;;;;;;;4.47;1.00;;;;;;;7.05;100.00;100098.09;10325823;28;20046;-77
2023/03/24 20:57:47;;;;;;;1.40;0.70;;;;;;;7.01;100.00;100096.16;10340459;28;20070;-77
2023/03/24 21:02:48;;;;;;;4.50;1.40;;;;;;;6.84;100.00;100095.31;10329048;28;20133;-76
2023/03/24 21:07:48;;;;;;;2.40;0.70;;;;;;;6.95;100.00;100089.75;10323672;28;20128;-75
2023/03/24 21:12:49;;;;;;;4.35;0.75;;;;;;;7.04;100.00;100085.00;10363030;28;20038;-74
2023/03/24 21:17:49;;;;;;;1.92;1.00;;;;;;;7.09;100.00;100080.03;10334535;28;20149;-75
2023/03/24 21:22:53;;;;;;;1.80;0.80;;;;;;;7.19;100.00;100090.06;10311064;28;20441;-75
2023/03/24 21:27:54;;;;;;;2.38;0.90;;;;;;;7.40;100.00;100077.22;10332482;28;20149;-77
2023/03/24 21:32:55;;;;;;;4.60;0.90;;;;;;;7.70;100.00;100095.09;10309230;28;20097;-77
2023/03/24 21:37:55;;;;;;;1.77;0.98;;;;;;;7.77;100.00;100091.06;10297975;28;20044;-76
2023/03/24 21:43:03;;;;;;;6.07;1.60;;;;;;;7.85;100.00;100105.31;10326736;28;20044;-76
2023/03/24 21:48:04;;;;;;;1.50;1.08;;;;;;;7.97;100.00;100109.31;10343108;28;20092;-76
2023/03/24 21:53:14;;;;;;;1.47;0.70;;;;;;;7.61;100.00;100116.38;10327013;28;20056;-76
2023/03/24 21:58:14;;;;;;;6.22;1.95;;;;;;;7.37;100.00;100118.72;10324638;28;20046;-75
2023/03/24 22:03:15;;;;;;;4.95;1.58;;;;;;;7.29;100.00;100120.06;10304893;28;20133;-76
2023/03/24 22:08:21;;;;;;;3.78;1.27;;;;;;;7.30;100.00;100127.91;10311317;28;20050;-74
2023/03/24 22:13:21;;;;;;;5.22;1.95;;;;;;;7.36;100.00;100114.31;10330811;28;20053;-75
2023/03/24 22:18:23;;;;;;;3.28;1.83;;;;;;;7.37;100.00;100115.19;10320201;28;20125;-75
2023/03/24 22:23:23;;;;;;;3.35;1.10;;;;;;;7.28;100.00;100100.03;10313445;28;20113;-76
2023/03/24 22:28:24;;;;;;;3.78;0.80;;;;;;;7.27;100.00;100091.34;10328714;28;20038;-75
2023/03/24 22:33:24;;;;;;;3.92;1.08;;;;;;;7.27;100.00;100091.34;10327068;28;20070;-75
2023/03/24 22:38:25;;;;;;;4.50;1.15;;;;;;;7.25;100.00;100095.56;10315868;28;20380;-75
2023/03/24 22:43:26;;;;;;;4.80;1.58;;;;;;;7.25;100.00;100092.97;10349190;28;20065;-76
2023/03/24 22:48:26;;;;;;;9.75;2.78;;;;;;;7.39;100.00;100088.44;10342770;28;20128;-75
2023/03/24 22:53:27;;;;;;;8.00;2.85;;;;;;;7.53;100.00;100093.41;10326721;28;20038;-75
2023/03/24 22:58:28;;;;;;;6.43;1.10;;;;;;;7.36;100.00;100083.09;10335392;28;20383;-75
2023/03/24 23:03:28;;;;;;;2.67;1.00;;;;;;;7.23;100.00;100097.19;10328200;28;20045;-77
2023/03/24 23:08:30;;;;;;;3.97;1.52;;;;;;;6.99;100.00;100110.78;10289195;28;20177;-75
2023/03/24 23:13:34;;;;;;;4.10;1.03;;;;;;;6.92;100.00;100082.69;10285979;28;20606;-76